createdAt,value
2018-06-29T00:00:02.670Z,19.24
2018-06-29T00:02:31.284Z,19.19
2018-06-29T00:05:00.732Z,19.23
2018-06-29T00:07:29.458Z,19.26
2018-06-29T00:09:58.834Z,19.21
2018-06-29T00:12:27.523Z,19.20
2018-06-29T00:14:56.913Z,19.23
2018-06-29T00:17:25.567Z,19.27
2018-06-29T00:19:54.584Z,19.23
2018-06-29T00:22:23.506Z,19.22
2018-06-29T00:24:52.191Z,19.25
2018-06-29T00:27:20.851Z,19.29
2018-06-29T00:29:49.479Z,19.20
2018-06-29T00:32:18.295Z,19.17
2018-06-29T00:34:46.959Z,19.23
2018-06-29T00:37:15.725Z,19.23
2018-06-29T00:39:44.570Z,19.25
2018-06-29T00:42:13.859Z,19.28
2018-06-29T00:44:43.040Z,19.31
2018-06-29T00:47:11.918Z,19.32
2018-06-29T00:49:40.636Z,19.30
2018-06-29T00:52:09.261Z,19.31
2018-06-29T00:54:37.934Z,19.25
2018-06-29T00:57:07.036Z,19.26
2018-06-29T00:59:36.037Z,19.20
2018-06-29T01:02:04.743Z,19.23
2018-06-29T01:04:33.399Z,19.23
2018-06-29T01:07:02.173Z,19.20
2018-06-29T01:09:30.854Z,19.23
2018-06-29T01:11:59.751Z,19.23
2018-06-29T01:14:29.108Z,19.16
2018-06-29T01:16:57.878Z,19.16
2018-06-29T01:19:26.564Z,19.14
2018-06-29T01:21:55.384Z,19.17
2018-06-29T01:24:24.692Z,19.16
2018-06-29T01:26:54.042Z,19.09
2018-06-29T01:29:22.700Z,19.10
2018-06-29T01:31:51.353Z,19.11
2018-06-29T01:34:20.800Z,19.07
2018-06-29T01:36:49.492Z,19.12
2018-06-29T01:39:19.208Z,19.11
2018-06-29T01:41:47.835Z,19.11
2018-06-29T01:44:16.524Z,19.10
2018-06-29T01:46:45.375Z,19.12
2018-06-29T01:49:14.114Z,19.08
2018-06-29T01:51:42.811Z,19.10
2018-06-29T01:54:11.392Z,19.08
2018-06-29T01:56:40.247Z,18.94
2018-06-29T01:59:08.991Z,19.00
2018-06-29T02:01:37.705Z,19.04
2018-06-29T02:04:06.691Z,19.09
2018-06-29T02:06:35.576Z,19.11
2018-06-29T02:09:06.536Z,19.14
2018-06-29T02:11:35.136Z,19.09
2018-06-29T02:14:04.348Z,19.10
2018-06-29T02:16:33.203Z,19.09
2018-06-29T02:19:01.791Z,19.10
2018-06-29T02:21:30.458Z,19.12
2018-06-29T02:23:59.070Z,19.14
2018-06-29T02:26:27.722Z,19.17
2018-06-29T02:28:57.178Z,19.20
2018-06-29T02:31:25.835Z,19.15
2018-06-29T02:33:54.398Z,19.17
2018-06-29T02:36:23.803Z,19.18
2018-06-29T02:38:53.110Z,19.14
2018-06-29T02:41:21.751Z,19.12
2018-06-29T02:43:50.635Z,19.05
2018-06-29T02:46:19.473Z,19.10
2018-06-29T02:48:48.433Z,19.12
2018-06-29T02:51:17.098Z,19.13
2018-06-29T02:53:46.302Z,19.17
2018-06-29T02:56:15.294Z,19.15
2018-06-29T02:58:44.027Z,19.16
2018-06-29T03:01:13.454Z,19.14
2018-06-29T03:03:42.149Z,19.13
2018-06-29T03:06:10.983Z,19.13
2018-06-29T03:08:39.830Z,19.15
2018-06-29T03:11:08.634Z,19.15
2018-06-29T03:13:37.250Z,19.17
2018-06-29T03:16:05.973Z,19.16
2018-06-29T03:18:35.124Z,19.18
2018-06-29T03:21:04.932Z,19.00
2018-06-29T03:23:33.980Z,19.00
2018-06-29T03:26:02.774Z,19.08
2018-06-29T03:28:31.511Z,19.09
2018-06-29T03:31:00.201Z,19.09
2018-06-29T03:33:29.630Z,18.89
2018-06-29T03:35:58.264Z,18.90
2018-06-29T03:38:26.978Z,18.96
2018-06-29T03:40:55.749Z,19.04
2018-06-29T03:43:24.495Z,19.07
2018-06-29T03:45:53.728Z,19.07
2018-06-29T03:48:22.395Z,18.80
2018-06-29T03:50:51.371Z,18.85
2018-06-29T03:53:20.033Z,18.85
2018-06-29T03:55:48.697Z,18.96
2018-06-29T03:58:17.407Z,19.03
2018-06-29T04:00:46.101Z,19.05
2018-06-29T04:03:15.000Z,19.05
2018-06-29T04:05:43.769Z,19.10
2018-06-29T04:08:12.560Z,19.12
2018-06-29T04:10:41.362Z,19.12
2018-06-29T04:13:10.767Z,19.07
2018-06-29T04:15:39.380Z,18.98
2018-06-29T04:18:08.177Z,19.11
2018-06-29T04:20:36.853Z,19.20
2018-06-29T04:23:06.068Z,19.13
2018-06-29T04:25:34.833Z,19.11
2018-06-29T04:28:03.579Z,19.04
2018-06-29T04:30:32.476Z,18.99
2018-06-29T04:33:01.160Z,18.91
2018-06-29T04:35:29.878Z,18.88
2018-06-29T04:37:59.312Z,18.95
2018-06-29T04:40:32.037Z,18.97
2018-06-29T04:43:00.964Z,19.05
2018-06-29T04:45:29.675Z,19.06
2018-06-29T04:47:58.740Z,19.04
2018-06-29T04:50:27.562Z,19.08
2018-06-29T04:52:56.632Z,18.97
2018-06-29T04:55:25.251Z,19.02
2018-06-29T04:57:53.953Z,19.06
2018-06-29T05:00:24.311Z,19.02
2018-06-29T05:02:53.056Z,19.04
2018-06-29T05:05:22.297Z,19.12
2018-06-29T05:07:50.956Z,19.12
2018-06-29T05:10:20.320Z,19.03
2018-06-29T05:12:48.992Z,19.16
2018-06-29T05:15:18.703Z,19.13
2018-06-29T05:17:47.508Z,19.16
2018-06-29T05:20:16.462Z,19.25
2018-06-29T05:22:45.163Z,19.33
2018-06-29T05:25:13.782Z,19.36
2018-06-29T05:27:42.426Z,19.46
2018-06-29T05:30:11.580Z,19.54
2018-06-29T05:32:40.296Z,19.56
2018-06-29T05:35:09.010Z,19.45
2018-06-29T05:37:37.697Z,19.52
2018-06-29T05:40:06.594Z,19.86
2018-06-29T05:42:35.483Z,20.00
2018-06-29T05:45:04.174Z,19.84
2018-06-29T05:47:32.865Z,19.99
2018-06-29T05:50:01.601Z,20.09
2018-06-29T05:52:30.987Z,20.02
2018-06-29T05:54:59.736Z,20.23
2018-06-29T05:57:28.908Z,20.23
2018-06-29T05:59:58.579Z,20.24
2018-06-29T06:02:28.092Z,20.43
2018-06-29T06:04:56.801Z,20.49
2018-06-29T06:07:25.443Z,20.50
2018-06-29T06:09:54.264Z,20.53
2018-06-29T06:12:23.070Z,20.35
2018-06-29T06:14:51.759Z,20.33
2018-06-29T06:17:21.039Z,20.22
2018-06-29T06:20:00.864Z,20.32
2018-06-29T06:22:30.705Z,20.34
2018-06-29T06:25:00.264Z,20.34
2018-06-29T06:27:29.359Z,20.21
2018-06-29T06:29:58.880Z,20.23
2018-06-29T06:32:28.101Z,20.17
2018-06-29T06:34:56.851Z,20.11
2018-06-29T06:37:25.547Z,20.04
2018-06-29T06:39:55.313Z,20.08
2018-06-29T06:42:24.168Z,19.94
2018-06-29T06:44:52.827Z,20.11
2018-06-29T06:47:21.596Z,20.17
2018-06-29T06:49:51.382Z,20.36
2018-06-29T06:52:20.032Z,20.45
2018-06-29T06:54:48.773Z,20.59
2018-06-29T06:57:17.567Z,20.69
2018-06-29T06:59:46.537Z,20.89
2018-06-29T07:02:15.526Z,20.73
2018-06-29T07:04:45.906Z,20.79
2018-06-29T07:07:14.623Z,21.12
2018-06-29T07:09:43.769Z,21.38
2018-06-29T07:12:12.465Z,21.51
2018-06-29T07:14:41.127Z,21.73
2018-06-29T07:17:10.571Z,21.82
2018-06-29T07:19:39.270Z,22.08
2018-06-29T07:22:08.428Z,22.09
2018-06-29T07:24:38.169Z,22.23
2018-06-29T07:27:07.458Z,22.43
2018-06-29T07:29:37.197Z,22.58
2018-06-29T07:32:06.693Z,22.78
2018-06-29T07:34:36.257Z,23.00
2018-06-29T07:37:05.067Z,22.90
2018-06-29T07:39:34.676Z,22.79
2018-06-29T07:42:04.197Z,22.90
2018-06-29T07:44:33.316Z,23.13
2018-06-29T07:47:02.062Z,22.87
2018-06-29T07:49:31.626Z,23.10
2018-06-29T07:52:00.696Z,23.21
2018-06-29T07:54:29.820Z,23.33
2018-06-29T07:56:59.965Z,23.27
2018-06-29T07:59:28.719Z,23.27
2018-06-29T08:02:04.389Z,22.93
2018-06-29T08:04:33.694Z,22.79
2018-06-29T08:07:02.540Z,22.73
2018-06-29T08:09:31.264Z,22.59
2018-06-29T08:12:00.474Z,22.53
2018-06-29T08:14:30.487Z,22.50
2018-06-29T08:16:59.456Z,22.35
2018-06-29T08:19:28.234Z,22.35
2018-06-29T08:21:56.965Z,22.31
2018-06-29T08:24:25.897Z,22.18
2018-06-29T08:26:54.981Z,22.23
2018-06-29T08:29:24.214Z,22.27
2018-06-29T08:31:55.260Z,22.10
2018-06-29T08:34:24.436Z,21.99
2018-06-29T08:36:53.130Z,22.15
2018-06-29T08:39:21.831Z,22.32
2018-06-29T08:41:50.765Z,22.27
2018-06-29T08:44:19.638Z,22.32
2018-06-29T08:46:49.181Z,22.66
2018-06-29T08:49:17.905Z,22.74
2018-06-29T08:51:46.674Z,22.63
2018-06-29T08:54:15.871Z,22.53
2018-06-29T08:56:44.701Z,22.75
2018-06-29T08:59:13.771Z,22.81
2018-06-29T09:01:42.919Z,22.87
2018-06-29T09:04:12.127Z,22.91
2018-06-29T09:06:41.134Z,23.02
2018-06-29T09:09:10.171Z,23.18
2018-06-29T09:11:39.288Z,23.28
2018-06-29T09:14:08.058Z,23.41
2018-06-29T09:16:37.139Z,23.61
2018-06-29T09:19:06.043Z,23.14
2018-06-29T09:21:34.754Z,23.42
2018-06-29T09:24:03.690Z,23.67
2018-06-29T09:26:32.414Z,23.96
2018-06-29T09:29:01.815Z,23.90
2018-06-29T09:31:31.204Z,23.89
2018-06-29T09:33:59.912Z,23.62
2018-06-29T09:36:30.036Z,23.58
2018-06-29T09:38:59.103Z,23.50
2018-06-29T09:41:29.349Z,23.82
2018-06-29T09:43:58.380Z,23.90
2018-06-29T09:46:27.603Z,23.88
2018-06-29T09:48:56.329Z,24.05
2018-06-29T09:51:25.448Z,23.98
2018-06-29T09:53:54.663Z,24.31
2018-06-29T09:56:23.562Z,24.54
2018-06-29T09:58:52.610Z,24.70
2018-06-29T10:01:21.485Z,24.67
2018-06-29T10:03:51.337Z,24.69
2018-06-29T10:06:20.311Z,24.77
2018-06-29T10:08:49.051Z,24.89
2018-06-29T10:11:17.861Z,24.75
2018-06-29T10:13:47.814Z,24.97
2018-06-29T10:16:16.490Z,25.24
2018-06-29T10:18:45.869Z,25.26
2018-06-29T10:21:15.514Z,25.40
2018-06-29T10:23:44.241Z,25.42
2018-06-29T10:26:13.029Z,25.34
2018-06-29T10:28:42.095Z,25.44
2018-06-29T10:31:11.591Z,25.76
2018-06-29T10:33:40.514Z,26.01
2018-06-29T10:36:09.163Z,25.84
2018-06-29T10:38:37.988Z,25.86
2018-06-29T10:41:06.976Z,26.00
2018-06-29T10:43:35.674Z,25.90
2018-06-29T10:46:04.412Z,25.57
2018-06-29T10:48:34.046Z,25.55
2018-06-29T10:51:03.270Z,25.88
2018-06-29T10:53:32.655Z,26.26
2018-06-29T10:56:02.333Z,26.34
2018-06-29T10:58:30.999Z,26.44
2018-06-29T11:01:00.677Z,26.49
2018-06-29T11:03:29.505Z,26.50
2018-06-29T11:05:58.171Z,26.67
2018-06-29T11:08:28.002Z,26.60
2018-06-29T11:10:56.693Z,26.83
2018-06-29T11:13:27.196Z,26.95
2018-06-29T11:15:56.331Z,27.07
2018-06-29T11:18:25.405Z,26.98
2018-06-29T11:20:54.103Z,27.15
2018-06-29T11:23:22.851Z,27.07
2018-06-29T11:25:53.525Z,27.04
2018-06-29T11:28:22.450Z,26.89
2018-06-29T11:30:51.216Z,26.44
2018-06-29T11:33:20.731Z,26.40
2018-06-29T11:35:50.362Z,26.46
2018-06-29T11:38:19.231Z,26.28
2018-06-29T11:40:48.750Z,26.26
2018-06-29T11:43:17.375Z,26.33
2018-06-29T11:45:46.141Z,26.59
2018-06-29T11:48:15.566Z,26.79
2018-06-29T11:50:44.241Z,26.84
2018-06-29T11:53:12.938Z,26.85
2018-06-29T11:55:41.624Z,27.01
2018-06-29T11:58:10.335Z,26.89
2018-06-29T12:00:39.538Z,26.97
2018-06-29T12:03:09.105Z,27.02
2018-06-29T12:05:37.862Z,27.15
2018-06-29T12:08:07.634Z,27.07
2018-06-29T12:10:36.844Z,27.06
2018-06-29T12:13:05.757Z,26.96
2018-06-29T12:15:34.917Z,26.89
2018-06-29T12:18:03.680Z,27.02
2018-06-29T12:20:33.281Z,27.11
2018-06-29T12:23:03.467Z,27.22
2018-06-29T12:25:33.315Z,27.40
2018-06-29T12:28:03.565Z,27.47
2018-06-29T12:30:32.276Z,27.58
2018-06-29T12:33:00.966Z,27.65
2018-06-29T12:35:29.633Z,27.66
2018-06-29T12:37:58.598Z,27.64
2018-06-29T12:40:29.906Z,27.48
2018-06-29T12:42:59.259Z,27.23
2018-06-29T12:45:28.912Z,27.59
2018-06-29T12:47:57.772Z,27.90
2018-06-29T12:50:26.841Z,28.07
2018-06-29T12:52:56.354Z,28.47
2018-06-29T12:55:25.184Z,28.85
2018-06-29T12:57:54.076Z,29.29
2018-06-29T13:00:22.971Z,29.08
2018-06-29T13:02:52.659Z,29.02
2018-06-29T13:05:21.404Z,29.73
2018-06-29T13:07:50.369Z,29.63
2018-06-29T13:10:19.111Z,28.95
2018-06-29T13:12:47.825Z,28.18
2018-06-29T13:15:16.519Z,27.63
2018-06-29T13:17:45.899Z,28.13
2018-06-29T13:20:14.893Z,28.66
2018-06-29T13:22:43.651Z,28.91
2018-06-29T13:25:12.734Z,30.42
2018-06-29T13:27:41.905Z,31.54
2018-06-29T13:30:10.624Z,31.52
2018-06-29T13:32:39.514Z,31.06
2018-06-29T13:35:08.806Z,31.70
2018-06-29T13:37:38.542Z,32.54
2018-06-29T13:40:07.360Z,32.92
2018-06-29T13:42:37.693Z,32.83
2018-06-29T13:45:06.358Z,33.16
2018-06-29T13:47:36.106Z,33.55
2018-06-29T13:50:06.020Z,33.37
2018-06-29T13:52:35.035Z,32.79
2018-06-29T13:55:05.251Z,32.54
2018-06-29T13:57:34.039Z,32.62
2018-06-29T14:00:03.719Z,33.17
2018-06-29T14:02:33.591Z,33.31
2018-06-29T14:05:02.313Z,33.33
2018-06-29T14:07:32.487Z,32.87
2018-06-29T14:10:01.594Z,32.93
2018-06-29T14:12:31.600Z,33.23
2018-06-29T14:15:01.335Z,32.62
2018-06-29T14:17:30.439Z,32.23
2018-06-29T14:19:59.440Z,31.97
2018-06-29T14:22:30.698Z,30.83
2018-06-29T14:25:00.165Z,30.55
2018-06-29T14:27:29.595Z,30.17
2018-06-29T14:29:58.369Z,30.10
2018-06-29T14:32:27.238Z,30.17
2018-06-29T14:34:56.192Z,30.14
2018-06-29T14:37:24.838Z,30.06
2018-06-29T14:39:53.615Z,30.19
2018-06-29T14:42:22.366Z,29.90
2018-06-29T14:44:51.449Z,29.73
2018-06-29T14:47:20.166Z,30.10
2018-06-29T14:49:48.848Z,30.09
2018-06-29T14:52:17.565Z,30.27
2018-06-29T14:54:47.047Z,30.41
2018-06-29T14:57:16.383Z,30.21
2018-06-29T14:59:45.897Z,30.01
2018-06-29T15:02:14.543Z,29.98
2018-06-29T15:04:43.204Z,30.14
2018-06-29T15:07:12.626Z,30.65
2018-06-29T15:09:42.371Z,31.04
2018-06-29T15:12:11.245Z,31.02
2018-06-29T15:14:40.147Z,31.05
2018-06-29T15:17:09.502Z,31.13
2018-06-29T15:19:38.172Z,31.09
2018-06-29T15:22:06.917Z,30.58
2018-06-29T15:24:35.892Z,30.33
2018-06-29T15:27:05.113Z,30.34
2018-06-29T15:29:33.819Z,30.36
2018-06-29T15:32:02.527Z,30.55
2018-06-29T15:34:31.890Z,30.54
2018-06-29T15:37:00.521Z,30.54
2018-06-29T15:39:29.730Z,30.28
2018-06-29T15:41:58.440Z,30.08
2018-06-29T15:44:27.106Z,29.80
2018-06-29T15:46:56.438Z,29.64
2018-06-29T15:49:25.159Z,29.32
2018-06-29T15:51:53.994Z,29.12
2018-06-29T15:54:23.416Z,28.87
2018-06-29T15:56:52.036Z,28.75
2018-06-29T15:59:20.861Z,28.69
2018-06-29T16:01:49.887Z,28.63
2018-06-29T16:04:18.613Z,28.54
2018-06-29T16:06:47.661Z,28.47
2018-06-29T16:09:16.355Z,28.44
2018-06-29T16:11:45.078Z,28.40
2018-06-29T16:14:13.804Z,28.37
2018-06-29T16:16:42.532Z,28.37
2018-06-29T16:19:11.231Z,28.34
2018-06-29T16:21:41.832Z,28.28
2018-06-29T16:24:10.550Z,28.17
2018-06-29T16:26:39.198Z,28.16
2018-06-29T16:29:07.935Z,28.19
2018-06-29T16:31:36.757Z,28.20
2018-06-29T16:34:06.072Z,28.21
2018-06-29T16:36:34.657Z,28.12
2018-06-29T16:39:05.084Z,28.07
2018-06-29T16:41:33.889Z,28.03
2018-06-29T16:44:02.473Z,28.01
2018-06-29T16:46:31.211Z,27.96
2018-06-29T16:48:59.900Z,27.91
2018-06-29T16:51:29.425Z,27.85
2018-06-29T16:53:58.707Z,27.93
2018-06-29T16:56:27.358Z,28.01
2018-06-29T16:58:56.010Z,27.88
2018-06-29T17:01:24.881Z,27.81
2018-06-29T17:03:53.652Z,27.75
2018-06-29T17:06:22.458Z,27.73
2018-06-29T17:08:51.160Z,27.69
2018-06-29T17:11:19.797Z,27.61
2018-06-29T17:13:48.736Z,27.56
2018-06-29T17:16:17.412Z,27.49
2018-06-29T17:18:47.279Z,27.51
2018-06-29T17:21:16.029Z,27.51
2018-06-29T17:23:44.838Z,27.50
2018-06-29T17:26:14.014Z,27.45
2018-06-29T17:28:42.956Z,27.41
2018-06-29T17:31:11.726Z,27.35
2018-06-29T17:33:40.687Z,27.38
2018-06-29T17:36:10.609Z,27.31
2018-06-29T17:38:40.778Z,27.24
2018-06-29T17:41:10.257Z,27.15
2018-06-29T17:43:39.009Z,27.12
2018-06-29T17:46:08.666Z,27.10
2018-06-29T17:48:37.583Z,27.19
2018-06-29T17:51:07.123Z,27.22
2018-06-29T17:53:36.010Z,27.21
2018-06-29T17:56:04.956Z,27.21
2018-06-29T17:58:34.288Z,27.23
2018-06-29T18:01:02.992Z,27.20
2018-06-29T18:03:32.428Z,27.19
2018-06-29T18:06:01.769Z,27.22
2018-06-29T18:08:30.452Z,27.21
2018-06-29T18:10:59.151Z,27.20
2018-06-29T18:13:27.905Z,27.08
2018-06-29T18:15:56.978Z,27.09
2018-06-29T18:18:25.810Z,27.15
2018-06-29T18:20:54.794Z,27.12
2018-06-29T18:23:23.810Z,27.14
2018-06-29T18:25:52.511Z,27.17
2018-06-29T18:28:21.877Z,27.16
2018-06-29T18:30:50.782Z,27.19
2018-06-29T18:33:19.443Z,27.24
2018-06-29T18:35:49.744Z,27.28
2018-06-29T18:38:18.696Z,27.28
2018-06-29T18:40:47.440Z,27.32
2018-06-29T18:43:16.154Z,27.26
2018-06-29T18:45:45.890Z,27.25
2018-06-29T18:48:14.859Z,27.23
2018-06-29T18:50:45.792Z,27.18
2018-06-29T18:53:16.382Z,27.17
2018-06-29T18:55:46.916Z,27.16
2018-06-29T18:58:15.765Z,27.02
2018-06-29T19:00:45.231Z,27.03
2018-06-29T19:03:14.820Z,26.94
2018-06-29T19:05:45.181Z,26.92
2018-06-29T19:08:13.879Z,26.91
2018-06-29T19:10:42.550Z,26.92
2018-06-29T19:13:11.345Z,26.89
2018-06-29T19:15:41.405Z,26.86
2018-06-29T19:18:13.997Z,26.83
2018-06-29T19:20:43.734Z,26.78
2018-06-29T19:23:12.389Z,26.75
2018-06-29T19:25:46.225Z,26.64
2018-06-29T19:28:17.919Z,26.62
2018-06-29T19:30:50.169Z,26.59
2018-06-29T19:33:20.850Z,26.54
2018-06-29T19:35:56.081Z,26.52
2018-06-29T19:38:31.314Z,26.48
2018-06-29T19:41:03.910Z,26.30
2018-06-29T19:43:34.645Z,26.12
2018-06-29T19:46:06.967Z,26.00
2018-06-29T19:48:38.984Z,26.05
2018-06-29T19:51:11.071Z,25.86
2018-06-29T19:53:41.414Z,25.85
2018-06-29T19:56:13.377Z,25.90
2018-06-29T19:58:44.485Z,25.89
2018-06-29T20:01:15.979Z,25.89
2018-06-29T20:03:48.090Z,25.87
2018-06-29T20:06:21.304Z,25.73
2018-06-29T20:08:53.604Z,25.56
2018-06-29T20:11:25.669Z,25.49
2018-06-29T20:13:56.600Z,25.29
2018-06-29T20:16:27.554Z,25.12
2018-06-29T20:19:02.335Z,25.10
2018-06-29T20:21:34.086Z,24.97
2018-06-29T20:24:05.731Z,24.99
2018-06-29T20:26:40.870Z,25.00
2018-06-29T20:29:12.955Z,25.04
2018-06-29T20:31:45.393Z,25.00
2018-06-29T20:34:16.696Z,24.99
2018-06-29T20:36:51.634Z,24.83
2018-06-29T20:39:25.488Z,24.77
2018-06-29T20:42:01.233Z,24.64
2018-06-29T20:44:32.297Z,24.59
2018-06-29T20:47:07.489Z,24.73
2018-06-29T20:49:38.717Z,24.76
2018-06-29T20:52:13.903Z,24.73
2018-06-29T20:54:46.784Z,24.72
2018-06-29T20:57:17.802Z,24.65
2018-06-29T20:59:49.265Z,24.53
2018-06-29T21:02:20.544Z,24.48
2018-06-29T21:04:54.575Z,24.38
2018-06-29T21:07:25.235Z,24.32
2018-06-29T21:10:03.836Z,24.24
2018-06-29T21:12:40.276Z,24.18
2018-06-29T21:15:12.709Z,24.22
2018-06-29T21:17:43.609Z,24.14
2018-06-29T21:20:18.055Z,24.07
2018-06-29T21:22:50.205Z,24.59
2018-06-29T21:25:22.003Z,24.44
2018-06-29T21:27:52.824Z,24.11
2018-06-29T21:30:23.984Z,24.08
2018-06-29T21:32:55.274Z,24.01
2018-06-29T21:35:25.952Z,23.74
2018-06-29T21:37:58.693Z,23.78
2018-06-29T21:40:30.734Z,23.73
2018-06-29T21:43:02.278Z,23.60
2018-06-29T21:45:35.467Z,23.54
2018-06-29T21:48:07.108Z,23.60
2018-06-29T21:50:38.489Z,23.54
2018-06-29T21:53:09.837Z,23.47
2018-06-29T21:55:41.029Z,23.40
2018-06-29T21:58:11.602Z,23.42
2018-06-29T22:00:45.890Z,23.38
2018-06-29T22:03:15.004Z,23.40
2018-06-29T22:05:44.184Z,23.40
2018-06-29T22:08:13.261Z,23.30
2018-06-29T22:10:42.075Z,23.20
2018-06-29T22:13:11.090Z,23.15
2018-06-29T22:15:39.906Z,23.13
2018-06-29T22:18:09.252Z,23.11
2018-06-29T22:20:37.963Z,23.09
2018-06-29T22:23:06.660Z,23.03
2018-06-29T22:25:35.961Z,22.93
2018-06-29T22:28:05.708Z,22.93
2018-06-29T22:30:35.838Z,22.89
2018-06-29T22:33:04.543Z,22.84
2018-06-29T22:35:34.384Z,22.80
2018-06-29T22:38:03.286Z,22.78
2018-06-29T22:40:32.063Z,22.75
2018-06-29T22:43:00.779Z,22.74
2018-06-29T22:45:29.467Z,22.68
2018-06-29T22:47:58.135Z,22.61
2018-06-29T22:50:26.845Z,22.57
2018-06-29T22:52:55.490Z,22.54
2018-06-29T22:55:24.196Z,22.55
2018-06-29T22:57:52.856Z,22.48
2018-06-29T23:00:21.622Z,22.42
2018-06-29T23:02:50.344Z,22.43
2018-06-29T23:05:19.259Z,22.42
2018-06-29T23:07:48.578Z,22.38
2018-06-29T23:10:17.955Z,22.32
2018-06-29T23:12:46.640Z,22.24
2018-06-29T23:15:15.316Z,22.21
2018-06-29T23:17:44.188Z,22.16
2018-06-29T23:20:13.129Z,22.15
2018-06-29T23:22:41.821Z,22.12
2018-06-29T23:25:10.468Z,22.09
2018-06-29T23:27:39.077Z,22.07
2018-06-29T23:30:07.924Z,22.04
2018-06-29T23:32:36.927Z,22.00
2018-06-29T23:35:05.848Z,21.94
2018-06-29T23:37:34.772Z,21.98
2018-06-29T23:40:03.550Z,21.92
2018-06-29T23:42:32.200Z,21.84
2018-06-29T23:45:01.213Z,21.76
2018-06-29T23:47:30.444Z,21.68
2018-06-29T23:49:59.512Z,21.67
2018-06-29T23:52:28.261Z,21.66
2018-06-29T23:54:57.505Z,21.67
2018-06-29T23:57:26.162Z,21.39
2018-06-29T23:59:55.101Z,21.47
